createdAt,value
2022-08-24T00:02:02.090Z,1.45
2022-08-24T00:04:32.110Z,1.30
2022-08-24T00:07:02.293Z,1.40
2022-08-24T00:09:32.049Z,1.48
2022-08-24T00:11:59.709Z,1.40
2022-08-24T00:14:27.193Z,1.38
2022-08-24T00:16:54.822Z,1.85
2022-08-24T00:19:22.458Z,1.30
2022-08-24T00:21:50.573Z,1.42
2022-08-24T00:24:18.669Z,1.40
2022-08-24T00:26:46.431Z,1.60
2022-08-24T00:29:15.531Z,1.50
2022-08-24T00:31:43.573Z,1.40
2022-08-24T00:34:13.378Z,1.73
2022-08-24T00:36:42.445Z,1.40
2022-08-24T00:39:12.644Z,1.50
2022-08-24T00:41:45.381Z,1.67
2022-08-24T00:44:14.255Z,1.38
2022-08-24T00:46:48.334Z,1.33
2022-08-24T00:49:24.802Z,1.52
2022-08-24T00:52:08.668Z,1.45
2022-08-24T00:54:46.066Z,1.33
2022-08-24T00:57:17.702Z,1.60
2022-08-24T00:59:55.617Z,1.55
2022-08-24T01:02:31.603Z,1.40
2022-08-24T01:05:02.978Z,1.35
2022-08-24T01:07:34.375Z,1.52
2022-08-24T01:10:08.568Z,1.40
2022-08-24T01:12:38.155Z,1.73
2022-08-24T01:15:07.889Z,1.42
2022-08-24T01:17:55.660Z,1.60
2022-08-24T01:20:26.321Z,1.60
2022-08-24T01:23:21.746Z,1.20
2022-08-24T01:25:50.142Z,1.30
2022-08-24T01:28:21.751Z,1.63
2022-08-24T01:30:55.768Z,1.35
2022-08-24T01:33:30.145Z,1.40
2022-08-24T01:36:28.148Z,1.38
2022-08-24T01:39:01.477Z,1.50
2022-08-24T01:41:29.447Z,1.40
2022-08-24T01:43:59.121Z,1.33
2022-08-24T01:46:28.817Z,1.63
2022-08-24T01:48:58.376Z,1.52
2022-08-24T01:51:30.371Z,1.40
2022-08-24T01:54:00.922Z,1.55
2022-08-24T01:56:29.436Z,1.40
2022-08-24T01:58:59.653Z,1.70
2022-08-24T02:01:30.635Z,1.75
2022-08-24T02:04:02.523Z,1.73
2022-08-24T02:06:30.353Z,1.65
2022-08-24T02:08:57.978Z,1.60
2022-08-24T02:11:29.207Z,1.70
2022-08-24T02:13:56.801Z,1.48
2022-08-24T02:16:24.687Z,1.80
2022-08-24T02:18:52.256Z,1.65
2022-08-24T02:21:22.361Z,1.60
2022-08-24T02:23:50.414Z,1.60
2022-08-24T02:26:18.722Z,1.40
2022-08-24T02:28:46.253Z,1.70
2022-08-24T02:31:17.615Z,1.60
2022-08-24T02:33:46.040Z,1.60
2022-08-24T02:36:25.639Z,1.88
2022-08-24T02:38:56.172Z,1.83
2022-08-24T02:41:25.718Z,1.70
2022-08-24T02:43:56.798Z,1.60
2022-08-24T02:46:28.268Z,2.00
2022-08-24T02:49:10.984Z,1.60
2022-08-24T02:51:44.621Z,1.85
2022-08-24T02:54:19.709Z,1.90
2022-08-24T02:56:50.239Z,1.80
2022-08-24T02:59:18.341Z,1.95
2022-08-24T03:01:47.050Z,1.50
2022-08-24T03:04:18.712Z,1.70
2022-08-24T03:06:48.463Z,1.90
2022-08-24T03:09:17.803Z,1.90
2022-08-24T03:11:45.760Z,1.60
2022-08-24T03:14:14.460Z,1.52
2022-08-24T03:16:42.602Z,1.30
2022-08-24T03:19:12.863Z,1.42
2022-08-24T03:21:42.947Z,1.38
2022-08-24T03:24:11.984Z,1.52
2022-08-24T03:26:44.055Z,1.45
2022-08-24T03:29:15.952Z,1.30
2022-08-24T03:31:45.001Z,1.30
2022-08-24T03:34:13.764Z,1.50
2022-08-24T03:36:48.031Z,1.30
2022-08-24T03:39:17.597Z,1.48
2022-08-24T03:41:46.896Z,1.50
2022-08-24T03:44:14.632Z,1.58
2022-08-24T03:46:42.339Z,1.42
2022-08-24T03:49:10.421Z,1.40
2022-08-24T03:51:39.144Z,1.60
2022-08-24T03:54:09.878Z,1.67
2022-08-24T03:56:38.071Z,1.45
2022-08-24T03:59:09.860Z,1.23
2022-08-24T04:01:43.353Z,1.50
2022-08-24T04:04:11.125Z,1.75
2022-08-24T04:06:40.484Z,1.50
2022-08-24T04:09:08.350Z,1.38
2022-08-24T04:11:41.565Z,1.58
2022-08-24T04:14:20.313Z,1.80
2022-08-24T04:16:58.926Z,1.70
2022-08-24T04:19:36.451Z,1.48
2022-08-24T04:22:04.327Z,1.80
2022-08-24T04:24:32.116Z,1.75
2022-08-24T04:26:59.815Z,1.70
2022-08-24T04:29:27.554Z,1.73
2022-08-24T04:31:55.944Z,1.58
2022-08-24T04:34:24.313Z,1.90
2022-08-24T04:36:53.541Z,1.50
2022-08-24T04:39:24.539Z,1.70
2022-08-24T04:42:12.326Z,1.50
2022-08-24T04:44:41.826Z,1.65
2022-08-24T04:47:13.048Z,1.50
2022-08-24T04:49:40.661Z,1.52
2022-08-24T04:52:08.602Z,1.58
2022-08-24T04:54:38.856Z,1.48
2022-08-24T04:57:13.463Z,1.35
2022-08-24T04:59:44.010Z,1.50
2022-08-24T05:02:16.135Z,1.48
2022-08-24T05:04:48.389Z,1.60
2022-08-24T05:07:18.660Z,1.50
2022-08-24T05:09:46.203Z,1.70
2022-08-24T05:12:16.714Z,1.70
2022-08-24T05:14:55.435Z,1.73
2022-08-24T05:17:23.445Z,1.50
2022-08-24T05:19:51.024Z,1.58
2022-08-24T05:22:19.402Z,1.30
2022-08-24T05:24:51.189Z,1.40
2022-08-24T05:27:19.504Z,1.20
2022-08-24T05:29:47.707Z,1.70
2022-08-24T05:32:17.758Z,1.38
2022-08-24T05:34:45.446Z,1.30
2022-08-24T05:37:13.069Z,1.40
2022-08-24T05:40:16.133Z,1.42
2022-08-24T05:42:48.543Z,1.17
2022-08-24T05:45:19.043Z,1.50
2022-08-24T05:47:46.713Z,1.70
2022-08-24T05:50:37.534Z,1.30
2022-08-24T05:53:05.626Z,1.55
2022-08-24T05:55:33.536Z,1.25
2022-08-24T05:58:04.277Z,1.48
2022-08-24T06:00:33.579Z,1.30
2022-08-24T06:03:01.240Z,1.50
2022-08-24T06:05:29.074Z,1.60
2022-08-24T06:07:57.947Z,1.33
2022-08-24T06:10:36.721Z,1.27
2022-08-24T06:13:06.287Z,1.50
2022-08-24T06:15:35.613Z,1.52
2022-08-24T06:18:04.659Z,1.35
2022-08-24T06:20:34.057Z,1.60
2022-08-24T06:23:03.731Z,1.40
2022-08-24T08:03:13.239Z,0.50
2022-08-24T08:22:12.592Z,0.50
2022-08-24T08:39:52.489Z,0.50
2022-08-24T09:32:42.893Z,0.43
2022-08-24T10:28:25.286Z,0.80
2022-08-24T10:31:03.176Z,0.63
2022-08-24T10:33:49.111Z,0.90
2022-08-24T10:36:52.170Z,0.73
2022-08-24T10:39:43.802Z,0.95
2022-08-24T10:43:05.411Z,0.70
2022-08-24T10:50:20.473Z,0.98
2022-08-24T10:53:21.701Z,1.00
2022-08-24T10:56:00.542Z,0.90
2022-08-24T10:58:49.010Z,0.98
2022-08-24T11:01:32.632Z,1.00
2022-08-24T11:04:11.131Z,0.88
2022-08-24T11:07:08.693Z,0.90
2022-08-24T11:09:55.925Z,0.98
2022-08-24T12:31:24.519Z,0.95
2022-08-24T15:09:16.620Z,1.23
2022-08-24T15:11:45.577Z,1.10
2022-08-24T15:18:25.574Z,1.08
2022-08-24T15:37:37.975Z,1.10
2022-08-24T16:01:04.304Z,1.00
2022-08-24T16:08:57.221Z,1.00
2022-08-24T16:11:57.522Z,1.02
2022-08-24T16:15:12.858Z,1.10
2022-08-24T16:19:17.838Z,1.00
2022-08-24T16:21:15.817Z,1.00
2022-08-24T16:24:01.496Z,1.08
2022-08-24T16:27:17.549Z,1.00
2022-08-24T16:37:56.146Z,1.05
2022-08-24T16:41:02.294Z,0.90
2022-08-24T16:45:10.618Z,1.15
2022-08-24T16:48:03.937Z,0.93
2022-08-24T16:50:39.708Z,1.00
2022-08-24T16:53:30.860Z,1.20
2022-08-24T16:56:23.258Z,0.90
2022-08-24T17:01:50.417Z,1.00
2022-08-24T17:04:18.114Z,0.90
2022-08-24T17:06:48.382Z,1.10
2022-08-24T17:09:24.498Z,1.00
2022-08-24T17:16:07.295Z,1.27
2022-08-24T17:18:37.395Z,1.40
2022-08-24T17:21:07.577Z,1.10
2022-08-24T17:23:36.170Z,1.10
2022-08-24T17:26:10.244Z,1.02
2022-08-24T17:28:54.646Z,1.30
2022-08-24T17:31:24.842Z,1.05
2022-08-24T17:33:53.285Z,1.25
2022-08-24T17:36:30.425Z,1.10
2022-08-24T18:06:00.072Z,1.25
2022-08-24T18:17:25.305Z,1.45
